createdAt,value
2023-02-22T00:02:14.033Z,85.21
2023-02-22T00:05:00.492Z,85.36
2023-02-22T00:07:47.777Z,85.48
2023-02-22T00:10:38.393Z,85.52
2023-02-22T00:13:25.301Z,85.69
2023-02-22T00:16:21.224Z,85.92
2023-02-22T00:19:08.673Z,86.14
2023-02-22T00:21:55.293Z,86.30
2023-02-22T00:24:41.767Z,86.52
2023-02-22T00:27:28.458Z,86.52
2023-02-22T00:30:21.984Z,86.63
2023-02-22T00:33:08.782Z,86.63
2023-02-22T00:35:55.499Z,86.67
2023-02-22T00:38:42.701Z,86.70
2023-02-22T00:41:29.689Z,86.67
2023-02-22T00:44:16.146Z,86.69
2023-02-22T00:47:04.777Z,86.76
2023-02-22T00:49:51.203Z,86.87
2023-02-22T00:52:38.669Z,86.96
2023-02-22T00:55:28.374Z,86.99
2023-02-22T00:58:14.936Z,87.05
2023-02-22T01:01:02.020Z,87.06
2023-02-22T01:03:48.617Z,87.25
2023-02-22T01:06:35.741Z,87.18
2023-02-22T01:09:22.700Z,87.21
2023-02-22T01:12:09.216Z,87.20
2023-02-22T01:14:59.362Z,87.22
2023-02-22T01:17:46.164Z,87.43
2023-02-22T01:20:33.285Z,87.56
2023-02-22T01:23:19.866Z,87.68
2023-02-22T01:26:06.737Z,87.84
2023-02-22T01:28:53.018Z,88.08
2023-02-22T01:31:39.516Z,88.19
2023-02-22T01:34:26.142Z,88.22
2023-02-22T01:37:12.700Z,88.19
2023-02-22T01:39:59.099Z,88.22
2023-02-22T01:42:47.104Z,88.18
2023-02-22T01:45:33.526Z,87.96
2023-02-22T01:48:37.164Z,87.74
2023-02-22T01:51:29.449Z,87.45
2023-02-22T01:54:18.863Z,87.27
2023-02-22T01:57:12.279Z,87.15
2023-02-22T02:00:11.389Z,87.12
2023-02-22T02:03:07.551Z,87.25
2023-02-22T02:05:58.737Z,87.24
2023-02-22T02:09:01.207Z,87.18
2023-02-22T02:11:49.628Z,87.06
2023-02-22T02:14:40.517Z,86.97
2023-02-22T02:17:27.115Z,86.85
2023-02-22T02:20:22.594Z,86.71
2023-02-22T02:23:47.010Z,86.57
2023-02-22T02:27:11.470Z,86.41
2023-02-22T02:30:18.347Z,86.36
2023-02-22T02:33:26.747Z,86.39
2023-02-22T02:36:26.135Z,86.24
2023-02-22T02:39:19.478Z,85.91
2023-02-22T02:42:11.700Z,85.96
2023-02-22T02:45:10.009Z,86.03
2023-02-22T02:47:59.814Z,86.11
2023-02-22T02:50:49.553Z,86.16
2023-02-22T02:53:42.926Z,86.16
2023-02-22T02:56:31.089Z,86.13
2023-02-22T02:59:43.874Z,86.23
2023-02-22T03:02:51.578Z,86.58
2023-02-22T03:05:47.311Z,86.79
2023-02-22T03:09:01.698Z,86.98
2023-02-22T03:12:19.367Z,87.14
2023-02-22T03:15:06.099Z,87.24
2023-02-22T03:18:17.819Z,87.29
2023-02-22T03:21:22.612Z,87.41
2023-02-22T03:24:23.109Z,87.47
2023-02-22T03:27:21.742Z,87.61
2023-02-22T03:30:12.283Z,87.69
2023-02-22T03:33:08.997Z,87.72
2023-02-22T03:36:08.584Z,87.84
2023-02-22T03:38:58.951Z,87.95
2023-02-22T03:41:49.294Z,88.00
2023-02-22T03:44:40.291Z,88.06
2023-02-22T03:47:38.424Z,88.15
2023-02-22T03:50:35.517Z,88.28
2023-02-22T03:53:23.259Z,88.32
2023-02-22T03:56:15.094Z,88.31
2023-02-22T03:59:08.206Z,88.42
2023-02-22T04:01:55.649Z,88.49
2023-02-22T04:04:42.259Z,88.45
2023-02-22T04:07:29.067Z,88.33
2023-02-22T04:10:17.033Z,88.10
2023-02-22T04:13:04.323Z,87.77
2023-02-22T04:15:51.052Z,87.57
2023-02-22T04:18:37.546Z,87.49
2023-02-22T04:21:24.293Z,87.57
2023-02-22T04:24:11.774Z,87.66
2023-02-22T04:26:57.966Z,87.61
2023-02-22T04:29:44.575Z,87.71
2023-02-22T04:32:31.018Z,87.85
2023-02-22T04:35:17.759Z,87.93
2023-02-22T04:38:05.151Z,87.98
2023-02-22T04:40:52.591Z,87.90
2023-02-22T04:43:39.038Z,87.90
2023-02-22T04:46:25.761Z,87.80
2023-02-22T04:49:12.638Z,87.80
2023-02-22T04:51:58.948Z,87.74
2023-02-22T04:54:45.557Z,87.81
2023-02-22T04:57:32.563Z,87.90
2023-02-22T05:00:21.796Z,87.97
2023-02-22T05:03:08.863Z,87.98
2023-02-22T05:05:56.489Z,87.97
2023-02-22T05:08:42.802Z,87.94
2023-02-22T05:11:29.178Z,87.95
2023-02-22T05:14:15.971Z,87.95
2023-02-22T05:17:03.857Z,87.95
2023-02-22T05:19:50.365Z,87.99
2023-02-22T05:22:36.891Z,87.97
2023-02-22T05:25:59.355Z,88.07
2023-02-22T05:28:44.583Z,88.02
2023-02-22T05:31:29.985Z,87.89
2023-02-22T05:34:15.831Z,87.88
2023-02-22T05:37:02.726Z,87.89
2023-02-22T05:39:47.705Z,87.93
2023-02-22T05:42:33.089Z,87.94
2023-02-22T05:45:21.026Z,87.96
2023-02-22T05:48:06.144Z,87.97
2023-02-22T05:50:51.304Z,87.97
2023-02-22T05:53:36.929Z,87.93
2023-02-22T05:56:24.213Z,87.97
2023-02-22T05:59:09.319Z,88.02
2023-02-22T06:01:54.771Z,88.05
2023-02-22T06:04:40.064Z,88.06
2023-02-22T06:07:25.218Z,88.02
2023-02-22T06:10:13.245Z,87.96
2023-02-22T06:12:59.589Z,87.94
2023-02-22T06:15:45.019Z,87.90
2023-02-22T06:18:30.576Z,87.87
2023-02-22T06:21:16.974Z,87.88
2023-02-22T06:24:03.770Z,87.85
2023-02-22T06:27:01.064Z,87.65
2023-02-22T06:29:46.900Z,87.49
2023-02-22T06:32:32.220Z,87.46
2023-02-22T06:35:18.314Z,87.42
2023-02-22T06:38:03.570Z,87.34
2023-02-22T06:40:48.842Z,87.17
2023-02-22T06:43:34.319Z,87.19
2023-02-22T06:46:20.524Z,87.09
2023-02-22T06:49:05.709Z,86.95
2023-02-22T06:51:51.104Z,86.56
2023-02-22T06:54:38.107Z,86.37
2023-02-22T06:57:23.176Z,86.35
2023-02-22T07:00:08.675Z,86.15
2023-02-22T07:02:54.241Z,85.54
2023-02-22T07:05:39.392Z,85.29
2023-02-22T07:08:24.764Z,85.21
2023-02-22T07:11:10.082Z,85.19
2023-02-22T07:13:55.470Z,85.01
2023-02-22T07:16:42.067Z,84.85
2023-02-22T07:19:27.277Z,84.26
2023-02-22T07:22:12.480Z,84.09
2023-02-22T07:24:57.769Z,83.75
2023-02-22T07:27:43.849Z,83.23
2023-02-22T07:30:33.344Z,82.97
2023-02-22T07:33:18.896Z,82.85
2023-02-22T07:36:05.596Z,82.38
2023-02-22T07:38:50.835Z,81.86
2023-02-22T07:41:36.239Z,81.09
2023-02-22T07:44:21.250Z,80.95
2023-02-22T07:47:07.028Z,80.77
2023-02-22T07:49:52.594Z,79.62
2023-02-22T07:52:37.974Z,78.82
2023-02-22T07:55:28.242Z,78.56
2023-02-22T07:58:14.912Z,78.44
2023-02-22T08:01:03.051Z,77.75
2023-02-22T08:03:48.530Z,77.25
2023-02-22T08:06:33.764Z,76.31
2023-02-22T08:09:18.763Z,76.69
2023-02-22T08:12:04.138Z,76.33
2023-02-22T08:14:49.282Z,75.57
2023-02-22T08:17:34.833Z,75.59
2023-02-22T08:20:20.874Z,75.90
2023-02-22T08:23:07.086Z,75.32
2023-02-22T08:25:53.496Z,74.21
2023-02-22T08:28:38.442Z,74.56
2023-02-22T08:31:23.432Z,73.91
2023-02-22T08:34:09.955Z,73.31
2023-02-22T08:36:55.184Z,72.23
2023-02-22T08:39:40.570Z,70.53
2023-02-22T08:42:25.843Z,70.47
2023-02-22T08:45:12.706Z,70.37
2023-02-22T08:47:58.729Z,69.52
2023-02-22T08:50:44.090Z,68.76
2023-02-22T08:53:29.530Z,68.93
2023-02-22T08:56:15.930Z,68.28
2023-02-22T08:59:01.123Z,68.23
2023-02-22T09:01:46.262Z,68.85
2023-02-22T09:04:31.615Z,69.22
2023-02-22T09:07:16.922Z,68.56
2023-02-22T09:10:02.399Z,68.21
2023-02-22T09:12:47.486Z,67.83
2023-02-22T09:15:35.283Z,67.44
2023-02-22T09:18:20.495Z,67.33
2023-02-22T09:21:05.907Z,67.61
2023-02-22T09:23:53.994Z,67.22
2023-02-22T09:26:38.925Z,67.53
2023-02-22T09:29:25.812Z,67.71
2023-02-22T09:32:11.202Z,67.49
2023-02-22T09:34:56.840Z,67.34
2023-02-22T09:37:44.304Z,67.74
2023-02-22T09:40:32.086Z,67.50
2023-02-22T09:43:19.974Z,67.21
2023-02-22T09:46:20.531Z,67.25
2023-02-22T09:49:21.257Z,67.61
2023-02-22T09:52:21.416Z,67.83
2023-02-22T09:55:35.679Z,68.05
2023-02-22T09:58:34.925Z,68.24
2023-02-22T10:01:39.305Z,68.01
2023-02-22T10:04:33.946Z,68.22
2023-02-22T10:07:44.387Z,68.56
2023-02-22T10:10:33.143Z,68.61
2023-02-22T10:13:27.238Z,69.42
2023-02-22T10:16:26.449Z,69.42
2023-02-22T10:19:20.347Z,69.74
2023-02-22T10:22:20.615Z,70.04
2023-02-22T10:25:25.620Z,69.95
2023-02-22T10:28:24.071Z,70.15
2023-02-22T10:31:21.170Z,69.64
2023-02-22T10:34:14.890Z,69.17
2023-02-22T10:37:13.414Z,69.66
2023-02-22T10:40:22.648Z,69.88
2023-02-22T10:43:10.451Z,70.24
2023-02-22T10:46:02.837Z,70.08
2023-02-22T10:48:52.665Z,69.52
2023-02-22T10:51:38.758Z,69.26
2023-02-22T10:54:35.739Z,67.59
2023-02-22T10:57:31.723Z,67.88
2023-02-22T11:00:32.516Z,67.26
2023-02-22T11:03:23.009Z,66.77
2023-02-22T11:06:21.154Z,66.17
2023-02-22T11:09:09.631Z,66.11
2023-02-22T11:12:09.853Z,65.91
2023-02-22T11:14:55.688Z,66.33
2023-02-22T11:17:41.723Z,66.46
2023-02-22T11:20:33.743Z,66.34
2023-02-22T11:23:22.795Z,66.04
2023-02-22T11:26:15.054Z,65.89
2023-02-22T11:29:10.703Z,65.78
2023-02-22T11:31:56.088Z,65.91
2023-02-22T11:34:44.602Z,65.73
2023-02-22T11:37:34.068Z,64.44
2023-02-22T11:40:22.298Z,64.27
2023-02-22T11:43:18.888Z,63.20
2023-02-22T11:46:26.470Z,62.95
2023-02-22T11:49:16.549Z,62.95
2023-02-22T11:52:07.532Z,62.73
2023-02-22T11:55:05.935Z,62.31
2023-02-22T11:58:47.660Z,61.58
2023-02-22T12:01:59.313Z,60.79
2023-02-22T12:04:59.614Z,61.15
2023-02-22T12:07:47.962Z,60.04
2023-02-22T12:10:43.061Z,59.04
2023-02-22T12:13:54.206Z,58.69
2023-02-22T12:17:01.871Z,58.77
2023-02-22T12:19:58.111Z,59.05
2023-02-22T12:23:12.082Z,58.87
2023-02-22T12:26:11.816Z,58.94
2023-02-22T12:29:12.215Z,57.72
2023-02-22T12:32:06.505Z,58.22
2023-02-22T12:34:56.912Z,57.94
2023-02-22T12:37:45.041Z,57.72
2023-02-22T12:40:53.202Z,57.15
2023-02-22T12:43:41.059Z,56.76
2023-02-22T12:46:36.519Z,57.19
2023-02-22T12:49:39.287Z,56.65
2023-02-22T12:52:36.826Z,56.67
2023-02-22T12:55:32.726Z,57.34
2023-02-22T12:58:39.043Z,57.46
2023-02-22T13:01:30.236Z,57.63
2023-02-22T13:04:20.851Z,57.79
2023-02-22T13:07:31.231Z,58.37
2023-02-22T13:10:25.824Z,58.36
2023-02-22T13:13:31.322Z,58.49
2023-02-22T13:16:45.317Z,57.98
2023-02-22T13:19:37.079Z,58.26
2023-02-22T13:22:49.364Z,58.51
2023-02-22T13:26:13.077Z,58.70
2023-02-22T13:29:08.071Z,58.70
2023-02-22T13:32:09.131Z,58.77
2023-02-22T13:35:17.593Z,58.93
2023-02-22T13:38:44.833Z,59.46
2023-02-22T13:41:54.616Z,59.88
2023-02-22T13:45:17.102Z,60.11
2023-02-22T13:48:27.490Z,60.37
2023-02-22T13:51:23.131Z,60.60
2023-02-22T13:54:17.592Z,60.65
2023-02-22T13:57:16.848Z,60.84
2023-02-22T14:00:23.136Z,60.76
2023-02-22T14:03:14.182Z,61.14
2023-02-22T14:06:00.850Z,60.97
2023-02-22T14:08:46.295Z,61.33
2023-02-22T14:11:31.554Z,61.02
2023-02-22T14:14:18.492Z,61.48
2023-02-22T14:17:22.122Z,61.54
2023-02-22T14:20:19.045Z,61.23
2023-02-22T14:23:27.426Z,61.36
2023-02-22T14:26:12.522Z,61.57
2023-02-22T14:29:07.269Z,61.57
2023-02-22T14:32:01.816Z,61.41
2023-02-22T14:34:57.375Z,61.29
2023-02-22T14:37:48.550Z,61.49
2023-02-22T14:40:37.112Z,61.61
2023-02-22T14:43:24.852Z,62.03
2023-02-22T14:46:18.048Z,61.83
2023-02-22T14:49:09.410Z,61.83
2023-02-22T14:52:03.213Z,61.71
2023-02-22T14:55:12.834Z,62.07
2023-02-22T14:58:00.991Z,62.41
2023-02-22T15:00:56.323Z,62.44
2023-02-22T15:03:42.642Z,62.70
2023-02-22T15:06:30.743Z,62.80
2023-02-22T15:09:28.933Z,62.42
2023-02-22T15:12:30.137Z,62.33
2023-02-22T15:15:22.026Z,62.60
2023-02-22T15:18:17.952Z,62.72
2023-02-22T15:21:25.316Z,63.21
2023-02-22T15:24:22.262Z,63.74
2023-02-22T15:27:15.145Z,63.58
2023-02-22T15:30:05.168Z,63.61
2023-02-22T15:33:03.579Z,64.15
2023-02-22T15:35:57.111Z,64.21
2023-02-22T15:38:51.458Z,64.44
2023-02-22T15:41:36.476Z,64.39
2023-02-22T15:44:23.914Z,64.59
2023-02-22T15:47:15.957Z,64.53
2023-02-22T15:50:25.202Z,64.55
2023-02-22T15:53:20.040Z,64.63
2023-02-22T15:56:37.503Z,64.43
2023-02-22T15:59:29.664Z,64.35
2023-02-22T16:02:29.227Z,64.40
2023-02-22T16:05:17.743Z,64.21
2023-02-22T16:08:08.399Z,64.22
2023-02-22T16:11:12.859Z,64.27
2023-02-22T16:14:23.003Z,64.37
2023-02-22T16:17:30.001Z,64.43
2023-02-22T16:20:17.962Z,64.78
2023-02-22T16:23:22.663Z,64.57
2023-02-22T16:26:21.606Z,64.63
2023-02-22T16:29:08.417Z,64.50
2023-02-22T16:31:53.889Z,64.15
2023-02-22T16:34:39.422Z,64.34
2023-02-22T16:37:27.886Z,64.38
2023-02-22T16:40:22.872Z,64.52
2023-02-22T16:43:15.750Z,64.80
2023-02-22T16:46:02.016Z,64.86
2023-02-22T16:48:48.237Z,64.93
2023-02-22T16:51:40.766Z,65.16
2023-02-22T16:54:29.071Z,65.31
2023-02-22T16:57:19.114Z,65.38
2023-02-22T17:00:12.494Z,65.33
2023-02-22T17:03:05.370Z,64.89
2023-02-22T17:05:50.847Z,64.56
2023-02-22T17:08:38.076Z,64.37
2023-02-22T17:11:23.607Z,64.70
2023-02-22T17:14:11.939Z,64.89
2023-02-22T17:16:58.067Z,64.44
2023-02-22T17:19:43.539Z,64.56
2023-02-22T17:22:28.565Z,63.99
2023-02-22T17:25:21.178Z,64.17
2023-02-22T17:28:07.348Z,64.58
2023-02-22T17:30:54.604Z,64.75
2023-02-22T17:33:40.015Z,64.77
2023-02-22T17:36:27.407Z,64.93
2023-02-22T17:39:12.808Z,65.28
2023-02-22T17:41:59.018Z,65.48
2023-02-22T17:44:44.600Z,65.47
2023-02-22T17:47:30.057Z,65.43
2023-02-22T17:50:16.037Z,65.97
2023-02-22T17:53:02.507Z,67.97
2023-02-22T17:55:48.267Z,67.58
2023-02-22T17:59:23.347Z,66.02
2023-02-22T18:02:09.862Z,66.01
2023-02-22T18:04:55.408Z,65.75
2023-02-22T18:07:40.383Z,65.44
2023-02-22T18:10:25.882Z,65.23
2023-02-22T18:13:17.112Z,65.32
2023-02-22T18:16:04.932Z,65.41
2023-02-22T18:18:55.226Z,65.57
2023-02-22T18:21:43.450Z,66.00
2023-02-22T18:24:33.672Z,66.17
2023-02-22T18:27:18.987Z,66.21
2023-02-22T18:30:05.251Z,66.18
2023-02-22T18:32:50.451Z,66.05
2023-02-22T18:35:35.421Z,66.05
2023-02-22T18:38:24.875Z,66.29
2023-02-22T18:41:12.676Z,66.39
2023-02-22T18:43:59.723Z,66.17
2023-02-22T18:46:44.769Z,65.79
2023-02-22T18:49:29.808Z,65.70
2023-02-22T18:52:15.338Z,65.91
2023-02-22T18:55:00.721Z,65.52
2023-02-22T18:57:46.981Z,65.67
2023-02-22T19:00:34.450Z,65.70
2023-02-22T19:03:19.605Z,65.81
2023-02-22T19:06:08.054Z,65.88
2023-02-22T19:08:53.390Z,65.97
2023-02-22T19:11:44.068Z,65.89
2023-02-22T19:14:29.079Z,65.99
2023-02-22T19:17:20.197Z,66.06
2023-02-22T19:20:09.935Z,66.13
2023-02-22T19:22:55.244Z,66.25
2023-02-22T19:25:40.713Z,66.08
2023-02-22T19:28:33.281Z,65.99
2023-02-22T19:31:31.525Z,66.04
2023-02-22T19:34:23.227Z,66.01
2023-02-22T19:37:09.287Z,65.64
2023-02-22T19:39:54.555Z,65.64
2023-02-22T19:42:40.298Z,65.82
2023-02-22T19:45:25.530Z,65.86
2023-02-22T19:48:10.908Z,65.81
2023-02-22T19:51:01.758Z,65.29
2023-02-22T19:53:46.976Z,65.18
2023-02-22T19:56:34.548Z,65.38
2023-02-22T19:59:23.032Z,65.70
2023-02-22T20:02:10.408Z,64.77
2023-02-22T20:04:55.508Z,64.94
2023-02-22T20:07:40.670Z,64.82
2023-02-22T20:10:26.550Z,64.98
2023-02-22T20:13:11.637Z,63.68
2023-02-22T20:15:56.628Z,64.05
2023-02-22T20:18:45.848Z,64.18
2023-02-22T20:21:33.425Z,64.17
2023-02-22T20:24:18.591Z,64.64
2023-02-22T20:27:03.732Z,64.82
2023-02-22T20:29:48.839Z,64.86
2023-02-22T20:32:34.809Z,64.69
2023-02-22T20:35:20.574Z,64.64
2023-02-22T20:38:06.112Z,64.57
2023-02-22T20:40:51.447Z,64.54
2023-02-22T20:43:36.667Z,64.06
2023-02-22T20:46:24.098Z,64.06
2023-02-22T20:49:12.857Z,64.31
2023-02-22T20:51:58.508Z,64.60
2023-02-22T20:54:43.884Z,64.87
2023-02-22T20:57:30.086Z,62.96
2023-02-22T21:00:17.461Z,62.68
2023-02-22T21:03:02.630Z,63.55
2023-02-22T21:05:47.707Z,64.14
2023-02-22T21:08:33.071Z,64.13
2023-02-22T21:11:18.216Z,63.74
2023-02-22T21:14:03.726Z,62.99
2023-02-22T21:16:51.350Z,62.47
2023-02-22T21:19:37.675Z,62.72
2023-02-22T21:22:24.431Z,62.76
2023-02-22T21:25:10.192Z,62.02
2023-02-22T21:27:55.559Z,62.36
2023-02-22T21:30:40.660Z,62.89
2023-02-22T21:33:26.049Z,62.97
2023-02-22T21:36:15.072Z,63.06
2023-02-22T21:39:08.260Z,62.92
2023-02-22T21:41:54.913Z,62.80
2023-02-22T21:44:39.894Z,62.32
2023-02-22T21:47:25.348Z,62.06
2023-02-22T21:50:10.936Z,61.89
2023-02-22T21:52:57.351Z,61.92
2023-02-22T21:55:43.596Z,61.43
2023-02-22T21:58:30.114Z,61.60
2023-02-22T22:01:16.608Z,62.04
2023-02-22T22:04:03.320Z,61.46
2023-02-22T22:06:51.006Z,60.51
2023-02-22T22:09:40.468Z,61.31
2023-02-22T22:12:37.466Z,61.01
2023-02-22T22:15:29.509Z,61.12
2023-02-22T22:18:15.093Z,61.72
2023-02-22T22:21:06.879Z,61.43
2023-02-22T22:23:56.560Z,61.24
2023-02-22T22:26:43.428Z,61.45
2023-02-22T22:29:29.700Z,61.37
2023-02-22T22:32:15.517Z,61.28
2023-02-22T22:35:00.767Z,61.52
2023-02-22T22:37:50.429Z,60.73
2023-02-22T22:40:38.194Z,60.98
2023-02-22T22:43:23.658Z,60.49
2023-02-22T22:46:09.571Z,60.97
2023-02-22T22:48:54.848Z,61.30
2023-02-22T22:51:40.624Z,61.58
2023-02-22T22:54:25.823Z,61.38
2023-02-22T22:57:11.530Z,60.70
2023-02-22T22:59:57.382Z,60.61
2023-02-22T23:02:42.478Z,60.82
2023-02-22T23:05:28.563Z,61.01
2023-02-22T23:08:15.446Z,61.07
2023-02-22T23:11:08.401Z,61.06
2023-02-22T23:13:54.019Z,61.06
2023-02-22T23:16:39.576Z,61.26
2023-02-22T23:19:24.726Z,61.69
2023-02-22T23:22:13.218Z,62.31
2023-02-22T23:24:59.297Z,61.90
2023-02-22T23:27:45.751Z,62.11
2023-02-22T23:30:30.950Z,61.21
2023-02-22T23:33:15.954Z,61.16
2023-02-22T23:36:03.779Z,60.93
2023-02-22T23:38:49.368Z,61.25
2023-02-22T23:41:35.870Z,61.35
2023-02-22T23:44:21.546Z,61.27
2023-02-22T23:47:06.501Z,61.64
2023-02-22T23:49:51.513Z,61.75
2023-02-22T23:52:36.734Z,61.77
2023-02-22T23:55:24.497Z,61.73
2023-02-22T23:58:09.819Z,61.93
